Time;durP1;ratioP1;P1;durP2;ratioP2;P2;SDS_P1;SDS_P2;PMS_P1;PMS_P2;Temp;Humidity;BMP_temperature;BMP_pressure;BME280_temperature;BME280_humidity;BME280_pressure;Samples;Min_cycle;Max_cycle;Signal;HPM_P1;HPM_P2
2022/03/31 00:00:39;;;;;;;2.75;1.23;;;;;;;-2.68;82.25;99940.97;5091187;28;20049;-76
2022/03/31 00:03:07;;;;;;;2.50;1.30;;;;;;;-2.80;82.43;99947.00;5084433;27;20126;-75
2022/03/31 00:05:33;;;;;;;1.50;1.20;;;;;;;-2.85;82.00;99946.81;5121588;27;20501;-75
2022/03/31 00:08:00;;;;;;;2.47;1.10;;;;;;;-2.84;82.68;99943.09;5117420;27;20809;-75
2022/03/31 00:10:28;;;;;;;2.67;1.42;;;;;;;-2.87;81.57;99946.19;5102014;28;20054;-75
2022/03/31 00:12:55;;;;;;;2.85;1.20;;;;;;;-2.94;82.64;99953.47;5104636;27;20071;-75
2022/03/31 00:15:21;;;;;;;2.17;1.10;;;;;;;-3.04;82.73;99948.50;5118251;27;20035;-74
2022/03/31 00:17:47;;;;;;;1.98;1.10;;;;;;;-3.10;83.04;99948.53;5097550;27;20104;-74
2022/03/31 00:20:13;;;;;;;1.48;1.13;;;;;;;-3.06;82.54;99949.75;5093593;28;20521;-75
2022/03/31 00:22:39;;;;;;;2.05;1.23;;;;;;;-3.12;82.35;99953.28;5105732;27;20031;-74
2022/03/31 00:25:06;;;;;;;2.08;1.20;;;;;;;-3.16;83.25;99952.03;5104656;27;20151;-76
2022/03/31 00:27:31;;;;;;;1.55;1.35;;;;;;;-3.17;83.19;99963.81;5127762;27;20039;-76
2022/03/31 00:29:57;;;;;;;1.52;1.10;;;;;;;-3.15;83.21;99964.41;5106549;27;20050;-75
2022/03/31 00:32:23;;;;;;;2.20;1.20;;;;;;;-3.10;82.40;99959.28;5120124;27;20097;-75
2022/03/31 00:34:48;;;;;;;1.80;1.10;;;;;;;-3.10;83.00;99957.41;5112307;27;20039;-74
2022/03/31 00:37:14;;;;;;;1.50;0.98;;;;;;;-3.09;83.09;99967.09;5118443;27;20035;-74
2022/03/31 00:39:40;;;;;;;1.38;1.10;;;;;;;-3.15;82.34;99965.25;5126439;27;20067;-74
2022/03/31 00:42:06;;;;;;;1.10;1.00;;;;;;;-3.22;83.21;99967.13;5087815;28;20042;-75
2022/03/31 00:44:32;;;;;;;2.95;0.88;;;;;;;-3.20;82.79;99964.22;5123272;27;20043;-75
2022/03/31 00:46:57;;;;;;;2.50;1.30;;;;;;;-3.16;82.42;99965.44;5093669;27;20391;-76
2022/03/31 00:49:24;;;;;;;2.10;1.20;;;;;;;-3.11;82.63;99968.34;5106781;27;20042;-76
2022/03/31 00:51:52;;;;;;;2.33;1.20;;;;;;;-3.10;82.76;99981.56;5094453;27;20031;-77
2022/03/31 00:54:22;;;;;;;1.48;1.13;;;;;;;-3.15;82.70;99975.16;5084602;28;20038;-75
2022/03/31 00:56:49;;;;;;;2.97;1.70;;;;;;;-3.17;82.84;99980.72;5103150;27;20544;-75
2022/03/31 00:59:17;;;;;;;1.90;1.40;;;;;;;-3.17;82.71;99982.59;5086066;27;20035;-75
2022/03/31 01:01:45;;;;;;;3.00;1.50;;;;;;;-3.12;82.56;99982.81;5111486;27;20137;-78
2022/03/31 01:04:11;;;;;;;3.65;1.50;;;;;;;-3.09;82.22;99977.84;5121808;27;20039;-74
2022/03/31 01:06:36;;;;;;;3.65;1.67;;;;;;;-3.09;82.39;99985.91;5129818;27;20158;-77
2022/03/31 01:09:04;;;;;;;1.45;1.02;;;;;;;-3.01;82.33;99976.78;5084340;27;20599;-74
2022/03/31 01:11:30;;;;;;;1.83;1.20;;;;;;;-3.01;82.73;99975.97;5104773;27;20043;-74
2022/03/31 01:13:56;;;;;;;1.73;1.17;;;;;;;-3.09;82.83;99987.75;5109911;27;20042;-76
2022/03/31 01:16:22;;;;;;;2.25;1.20;;;;;;;-3.20;83.08;99986.50;5117466;27;20035;-75
2022/03/31 01:18:49;;;;;;;4.30;1.30;;;;;;;-3.26;82.62;99989.22;5092630;28;20040;-75
2022/03/31 01:21:15;;;;;;;1.58;1.20;;;;;;;-3.27;83.17;99990.25;5103040;27;20039;-77
2022/03/31 01:23:40;;;;;;;2.15;1.40;;;;;;;-3.22;82.97;99993.94;5125609;27;20481;-76
2022/03/31 01:26:09;;;;;;;2.33;1.25;;;;;;;-3.17;82.92;100001.38;5121255;27;20510;-76
2022/03/31 01:28:37;;;;;;;2.85;2.65;;;;;;;-3.16;82.39;99995.78;5107548;27;20039;-75
2022/03/31 01:31:03;;;;;;;2.58;1.40;;;;;;;-3.13;83.19;100007.97;5108066;27;20112;-75
2022/03/31 01:33:28;;;;;;;1.95;1.50;;;;;;;-3.14;83.25;99999.09;5107772;27;20035;-75
2022/03/31 01:35:54;;;;;;;2.28;1.40;;;;;;;-3.18;82.56;100005.09;5095296;27;20123;-74
2022/03/31 01:38:20;;;;;;;2.60;1.40;;;;;;;-3.12;83.40;99998.91;5093718;27;20578;-71
2022/03/31 01:40:46;;;;;;;2.72;1.25;;;;;;;-3.12;82.84;100001.59;5100129;27;20040;-71
2022/03/31 01:43:12;;;;;;;2.67;1.48;;;;;;;-3.12;83.07;100002.41;5116834;27;20058;-71
2022/03/31 01:45:37;;;;;;;3.50;1.77;;;;;;;-3.08;82.40;100006.31;5122162;27;20090;-71
2022/03/31 01:48:04;;;;;;;2.03;1.27;;;;;;;-3.03;83.23;100008.38;5120550;27;20488;-71
2022/03/31 01:50:29;;;;;;;2.75;1.50;;;;;;;-3.01;83.41;100014.34;5096571;28;20040;-71
2022/03/31 01:52:55;;;;;;;2.35;1.35;;;;;;;-3.04;83.30;100012.09;5127508;27;20095;-71
2022/03/31 01:55:21;;;;;;;4.25;1.52;;;;;;;-3.03;83.02;100019.13;5092710;28;20111;-71
2022/03/31 01:57:47;;;;;;;4.45;1.55;;;;;;;-2.98;83.25;100008.56;5102193;27;20498;-71
2022/03/31 02:00:18;;;;;;;5.32;2.10;;;;;;;-2.94;82.27;100028.63;5116010;27;20043;-72
2022/03/31 02:02:44;;;;;;;3.55;2.33;;;;;;;-2.89;82.38;100022.63;5119814;27;20088;-71
2022/03/31 02:05:11;;;;;;;1.95;1.30;;;;;;;-2.97;82.55;100023.63;5117832;27;20513;-71
2022/03/31 02:07:36;;;;;;;3.08;1.63;;;;;;;-2.96;82.75;100022.59;5124312;27;20463;-70
2022/03/31 02:10:04;;;;;;;3.83;1.48;;;;;;;-2.96;81.96;100024.47;5122812;27;20038;-71
2022/03/31 02:12:31;;;;;;;2.83;1.77;;;;;;;-2.95;82.06;100026.13;5111949;27;20062;-70
2022/03/31 02:14:56;;;;;;;3.60;1.63;;;;;;;-2.98;82.09;100029.22;5108810;27;20040;-71
2022/03/31 02:17:27;;;;;;;2.25;1.42;;;;;;;-2.97;82.09;100030.88;5099108;27;20035;-71
2022/03/31 02:19:53;;;;;;;2.17;1.60;;;;;;;-2.99;81.77;100030.25;5121262;27;20832;-71
2022/03/31 02:22:18;;;;;;;3.55;1.80;;;;;;;-3.00;81.98;100037.47;5124895;27;20073;-71
2022/03/31 02:24:44;;;;;;;3.25;1.80;;;;;;;-2.99;81.87;100038.31;5114146;27;20057;-71
2022/03/31 02:27:11;;;;;;;3.05;1.58;;;;;;;-3.01;81.83;100032.31;5096700;27;20536;-71
2022/03/31 02:29:38;;;;;;;3.88;1.80;;;;;;;-3.07;81.79;100034.00;5123640;27;20456;-71
2022/03/31 02:32:04;;;;;;;2.67;1.55;;;;;;;-3.12;82.29;100039.16;5101896;27;20549;-71
2022/03/31 02:34:29;;;;;;;4.18;1.50;;;;;;;-3.18;82.57;100039.97;5094797;28;20035;-71
2022/03/31 02:37:20;;;;;;;3.72;1.38;;;;;;;-3.20;82.55;100045.53;5130259;27;20043;-70
2022/03/31 02:39:46;;;;;;;3.83;1.63;;;;;;;-3.13;82.60;100042.84;5122180;27;20047;-70
2022/03/31 02:42:11;;;;;;;2.75;1.38;;;;;;;-3.09;82.88;100052.97;5123727;27;20043;-70
2022/03/31 02:44:37;;;;;;;1.65;1.38;;;;;;;-3.12;82.76;100045.34;5128315;27;20042;-70
2022/03/31 02:47:03;;;;;;;3.33;1.65;;;;;;;-3.10;82.33;100051.34;5123776;27;20122;-70
2022/03/31 02:49:33;;;;;;;2.58;1.38;;;;;;;-3.08;82.63;100049.25;5123779;27;20085;-71
2022/03/31 02:52:00;;;;;;;2.80;1.55;;;;;;;-3.08;82.56;100049.25;5121622;27;20100;-71
2022/03/31 02:57:10;;;;;;;3.50;1.85;;;;;;;-3.07;82.47;100044.72;5109312;27;20123;-71
2022/03/31 02:59:36;;;;;;;2.53;1.67;;;;;;;-3.09;83.11;100049.47;5122091;27;20623;-70
2022/03/31 03:02:01;;;;;;;3.13;1.80;;;;;;;-3.09;82.84;100052.97;5101881;28;20047;-71
2022/03/31 03:04:27;;;;;;;3.78;1.50;;;;;;;-3.17;82.77;100053.16;5120909;27;20066;-70
2022/03/31 03:06:53;;;;;;;3.28;1.90;;;;;;;-3.22;82.15;100049.47;5096471;27;20035;-71
2022/03/31 03:09:18;;;;;;;3.15;1.58;;;;;;;-3.25;82.89;100061.44;5131765;27;20520;-71
2022/03/31 03:11:44;;;;;;;2.38;1.33;;;;;;;-3.22;82.65;100061.03;5095280;28;20056;-71
2022/03/31 03:14:12;;;;;;;1.77;1.50;;;;;;;-3.23;83.23;100067.41;5097870;28;20047;-71
2022/03/31 03:16:38;;;;;;;3.15;1.80;;;;;;;-3.22;83.16;100063.72;5131666;28;20582;-71
2022/03/31 03:19:04;;;;;;;4.78;1.88;;;;;;;-3.16;82.60;100075.47;5109040;28;20074;-71
2022/03/31 03:21:30;;;;;;;2.17;1.50;;;;;;;-3.15;83.25;100080.63;5119896;27;20494;-71
2022/03/31 03:23:55;;;;;;;3.63;1.88;;;;;;;-3.13;82.82;100077.72;5124809;27;20048;-71
2022/03/31 03:26:21;;;;;;;3.08;1.65;;;;;;;-3.11;83.73;100087.25;5114904;27;20043;-71
2022/03/31 03:28:47;;;;;;;3.78;2.05;;;;;;;-3.07;83.35;100076.94;5132725;27;20035;-70
2022/03/31 03:31:13;;;;;;;3.35;2.30;;;;;;;-3.10;83.06;100086.22;5131345;27;20035;-71
2022/03/31 03:33:39;;;;;;;3.72;2.45;;;;;;;-3.11;83.22;100089.13;5102922;28;20032;-70
2022/03/31 03:36:08;;;;;;;2.65;1.90;;;;;;;-3.10;83.63;100096.94;5098942;28;20036;-71
2022/03/31 03:38:34;;;;;;;1.88;1.50;;;;;;;-3.02;83.05;100093.22;5124665;27;20050;-72
2022/03/31 03:40:59;;;;;;;2.85;1.67;;;;;;;-2.95;82.95;100096.75;5111191;27;20036;-71
2022/03/31 03:43:25;;;;;;;2.92;1.80;;;;;;;-2.96;83.17;100097.75;5102387;27;20039;-71
2022/03/31 03:45:51;;;;;;;4.45;1.88;;;;;;;-2.94;83.36;100098.41;5105900;28;20074;-71
2022/03/31 03:48:16;;;;;;;3.10;2.08;;;;;;;-2.91;83.20;100094.47;5124674;27;20493;-70
2022/03/31 03:50:42;;;;;;;2.15;1.77;;;;;;;-2.88;83.14;100104.81;5098453;28;20036;-71
2022/03/31 03:53:08;;;;;;;4.25;1.95;;;;;;;-2.89;82.68;100095.91;5108392;27;20039;-71
2022/03/31 03:55:36;;;;;;;3.53;2.13;;;;;;;-2.95;82.66;100095.91;5116067;27;20072;-70
2022/03/31 03:58:03;;;;;;;3.83;2.03;;;;;;;-2.96;82.91;100105.81;5109892;28;20043;-71
2022/03/31 04:00:28;;;;;;;3.28;1.83;;;;;;;-2.96;83.50;100103.13;5095463;28;20033;-71
2022/03/31 04:02:54;;;;;;;4.85;1.75;;;;;;;-3.02;83.07;100112.00;5116148;27;20130;-71
2022/03/31 04:05:21;;;;;;;5.32;2.22;;;;;;;-3.03;83.08;100116.56;5129385;27;20036;-71
2022/03/31 04:07:46;;;;;;;4.72;2.15;;;;;;;-2.96;83.21;100108.50;5090480;28;20612;-70
2022/03/31 04:10:12;;;;;;;3.25;2.10;;;;;;;-3.02;82.79;100122.75;5101130;28;20122;-70
2022/03/31 04:12:39;;;;;;;5.63;2.30;;;;;;;-3.06;83.76;100121.53;5107732;28;20040;-70
2022/03/31 04:15:06;;;;;;;3.63;2.08;;;;;;;-3.00;83.47;100125.22;5116691;27;20057;-71
2022/03/31 04:17:32;;;;;;;4.68;2.05;;;;;;;-3.01;82.87;100119.03;5114444;27;20042;-71
2022/03/31 04:19:58;;;;;;;3.90;2.30;;;;;;;-2.99;83.86;100133.06;5103070;28;20130;-71
2022/03/31 04:22:23;;;;;;;6.50;2.50;;;;;;;-2.87;83.80;100130.59;5102408;27;20143;-71
2022/03/31 04:24:49;;;;;;;5.00;2.55;;;;;;;-2.76;83.43;100130.81;5095327;27;20075;-70
2022/03/31 04:27:14;;;;;;;5.40;2.42;;;;;;;-2.68;83.69;100131.63;5119032;27;20565;-71
2022/03/31 04:29:40;;;;;;;4.47;2.53;;;;;;;-2.61;83.47;100129.75;5093738;28;20108;-71
2022/03/31 04:32:06;;;;;;;4.88;2.53;;;;;;;-2.58;83.03;100138.25;5107108;27;20028;-71
2022/03/31 04:34:32;;;;;;;5.35;2.70;;;;;;;-2.47;82.00;100140.28;5093939;28;20043;-71
2022/03/31 04:36:58;;;;;;;5.85;2.90;;;;;;;-2.36;82.82;100148.75;5131751;27;20512;-71
2022/03/31 04:39:23;;;;;;;3.83;2.70;;;;;;;-2.28;81.39;100148.53;5102221;28;20069;-70
2022/03/31 04:41:50;;;;;;;4.68;2.63;;;;;;;-2.21;82.06;100152.88;5112273;27;20043;-71
2022/03/31 04:44:16;;;;;;;4.90;2.40;;;;;;;-2.15;81.00;100151.19;5118062;27;20040;-71
2022/03/31 04:46:41;;;;;;;3.95;2.15;;;;;;;-2.12;81.38;100156.97;5127074;27;20031;-70
2022/03/31 04:49:07;;;;;;;3.40;2.22;;;;;;;-1.96;81.33;100165.63;5113463;28;20047;-70
2022/03/31 04:51:33;;;;;;;2.88;1.92;;;;;;;-1.74;80.48;100161.63;5116337;27;20074;-71
2022/03/31 04:53:59;;;;;;;3.35;1.98;;;;;;;-1.37;79.62;100167.28;5110546;28;20122;-72
2022/03/31 04:56:25;;;;;;;3.63;2.10;;;;;;;-0.97;79.24;100167.84;5128015;27;20035;-71
2022/03/31 04:58:50;;;;;;;2.88;2.00;;;;;;;-0.68;78.17;100167.25;5116608;27;20081;-72
2022/03/31 05:01:17;;;;;;;2.70;1.70;;;;;;;-0.55;77.01;100179.75;5127203;27;20092;-71
2022/03/31 05:03:42;;;;;;;5.22;2.20;;;;;;;-0.51;75.59;100177.47;5133717;27;20039;-72
2022/03/31 05:06:33;;;;;;;3.05;1.75;;;;;;;-0.19;74.59;100176.34;5121298;27;20104;-72
2022/03/31 05:08:59;;;;;;;3.75;1.77;;;;;;;0.24;74.16;100179.00;5117420;27;20525;-71
2022/03/31 05:11:25;;;;;;;3.55;1.98;;;;;;;0.33;72.78;100182.22;5092539;28;20059;-71
2022/03/31 05:13:55;;;;;;;4.85;2.30;;;;;;;0.70;72.24;100183.03;5111935;27;20127;-71
2022/03/31 05:16:21;;;;;;;2.72;2.17;;;;;;;0.78;70.39;100184.56;5133397;27;20520;-70
2022/03/31 05:18:47;;;;;;;4.10;2.45;;;;;;;0.85;70.08;100188.81;5119911;27;20052;-71
2022/03/31 05:21:14;;;;;;;4.10;2.42;;;;;;;1.14;69.28;100189.06;5113146;28;20493;-71
2022/03/31 05:23:40;;;;;;;4.47;2.47;;;;;;;1.11;68.43;100184.13;5107881;27;20129;-71
2022/03/31 05:26:06;;;;;;;4.22;2.30;;;;;;;0.92;69.15;100194.16;5092669;28;20059;-72
2022/03/31 05:28:31;;;;;;;3.92;2.38;;;;;;;0.67;69.15;100202.34;5113055;28;20039;-72
2022/03/31 05:30:57;;;;;;;5.43;2.67;;;;;;;0.65;69.39;100200.94;5104721;28;20122;-72
2022/03/31 05:33:22;;;;;;;4.75;2.60;;;;;;;1.05;69.27;100201.25;5111107;28;20044;-72
2022/03/31 05:35:48;;;;;;;4.78;2.63;;;;;;;1.09;68.07;100202.44;5111787;28;20031;-72
2022/03/31 05:38:13;;;;;;;3.15;2.72;;;;;;;1.03;67.66;100209.56;5112652;28;20055;-72
2022/03/31 05:40:39;;;;;;;3.42;2.30;;;;;;;0.98;68.64;100214.84;5129469;27;20035;-71
2022/03/31 05:43:05;;;;;;;3.53;2.42;;;;;;;1.11;67.49;100208.44;5111952;27;20039;-71
2022/03/31 05:45:31;;;;;;;4.38;2.50;;;;;;;1.10;67.30;100217.59;5110175;28;20133;-71
2022/03/31 05:47:56;;;;;;;2.72;2.30;;;;;;;1.00;68.19;100220.84;5112411;28;20035;-70
2022/03/31 05:50:22;;;;;;;4.07;2.10;;;;;;;0.76;68.03;100217.22;5112426;28;20154;-72
2022/03/31 05:52:48;;;;;;;4.43;2.53;;;;;;;0.56;68.69;100222.03;5097589;28;20040;-72
2022/03/31 05:55:18;;;;;;;2.80;2.05;;;;;;;0.40;68.60;100228.03;5113011;27;20030;-72
2022/03/31 05:57:44;;;;;;;4.20;2.00;;;;;;;0.23;69.21;100225.94;5109430;27;20043;-71
2022/03/31 06:00:13;;;;;;;3.92;2.40;;;;;;;0.11;69.50;100232.28;5120595;27;20040;-72
2022/03/31 06:02:39;;;;;;;;;;;;;;;-0.05;70.86;100233.66;5129454;27;20151;-72
2022/03/31 06:05:05;;;;;;;4.38;2.13;;;;;;;-0.15;71.37;100244.97;5129037;27;19944;-72
2022/03/31 06:07:31;;;;;;;4.63;2.33;;;;;;;-0.18;71.94;100239.16;5119229;27;20031;-72
2022/03/31 06:09:56;;;;;;;5.63;2.40;;;;;;;-0.23;72.13;100244.41;5098951;27;20449;-72
2022/03/31 06:12:22;;;;;;;3.78;2.38;;;;;;;-0.28;71.65;100258.56;5119706;27;20447;-72
2022/03/31 06:14:47;;;;;;;5.10;2.53;;;;;;;-0.29;72.54;100248.81;5114166;27;20036;-72
2022/03/31 06:17:13;;;;;;;3.17;2.47;;;;;;;-0.30;72.02;100263.34;5116271;27;20031;-72
2022/03/31 06:19:39;;;;;;;3.30;2.72;;;;;;;-0.32;72.38;100257.34;5132172;27;20447;-72
2022/03/31 06:22:05;;;;;;;4.25;2.30;;;;;;;-0.31;72.52;100262.53;5120411;27;20043;-71
2022/03/31 06:24:30;;;;;;;4.50;2.30;;;;;;;-0.31;72.47;100267.91;5097895;28;20573;-71
2022/03/31 06:26:57;;;;;;;3.38;2.63;;;;;;;-0.35;72.21;100261.31;5106097;27;20051;-72
2022/03/31 06:29:25;;;;;;;3.33;1.85;;;;;;;-0.39;72.94;100262.78;5091741;28;20040;-72
2022/03/31 06:31:53;;;;;;;2.90;1.83;;;;;;;-0.29;72.48;100266.88;5091089;28;20541;-72
2022/03/31 06:34:22;;;;;;;5.10;2.35;;;;;;;-0.19;72.00;100275.28;5091467;28;20040;-72
2022/03/31 06:36:47;;;;;;;4.13;2.10;;;;;;;-0.10;72.09;100274.78;5093023;28;20089;-71
2022/03/31 06:39:13;;;;;;;3.35;2.30;;;;;;;-0.01;72.07;100273.44;5102215;27;20159;-72
2022/03/31 06:41:40;;;;;;;2.83;2.05;;;;;;;0.01;71.50;100281.34;5090998;28;20048;-72
2022/03/31 06:44:12;;;;;;;4.13;2.47;;;;;;;-0.05;72.12;100283.03;5073544;28;20032;-72
2022/03/31 06:46:42;;;;;;;4.05;2.20;;;;;;;-0.02;72.27;100281.78;5091025;28;20098;-72
2022/03/31 06:49:08;;;;;;;4.47;3.00;;;;;;;-0.01;71.30;100283.41;5098479;27;20031;-71
2022/03/31 06:51:34;;;;;;;4.35;2.63;;;;;;;0.04;72.02;100290.88;5124466;27;20040;-72
2022/03/31 06:54:00;;;;;;;6.82;2.58;;;;;;;-0.02;71.16;100289.84;5122305;27;20602;-71
2022/03/31 06:56:29;;;;;;;4.72;3.17;;;;;;;0.02;71.03;100291.09;5098412;28;20508;-71
2022/03/31 06:58:56;;;;;;;5.03;2.90;;;;;;;-0.04;71.29;100292.78;5104333;27;20557;-72
2022/03/31 07:01:22;;;;;;;4.65;2.58;;;;;;;-0.07;70.71;100292.41;5090529;28;20042;-72
2022/03/31 07:03:48;;;;;;;4.43;1.95;;;;;;;-0.14;71.15;100295.16;5103853;28;20122;-72
2022/03/31 07:06:14;;;;;;;5.40;2.03;;;;;;;-0.09;71.08;100302.59;5124432;27;20047;-72
2022/03/31 07:08:40;;;;;;;5.38;2.17;;;;;;;0.07;71.16;100296.66;5115070;27;20040;-72
2022/03/31 07:11:06;;;;;;;4.47;2.25;;;;;;;0.65;69.98;100298.16;5113631;27;20039;-71
2022/03/31 07:13:31;;;;;;;4.43;2.17;;;;;;;1.46;68.94;100305.88;5118735;27;20115;-71
2022/03/31 07:15:57;;;;;;;3.97;1.92;;;;;;;2.04;66.84;100297.88;5120881;27;20035;-71
2022/03/31 07:18:23;;;;;;;5.03;2.28;;;;;;;2.16;64.75;100307.91;5098159;28;20068;-72
2022/03/31 07:20:50;;;;;;;3.95;2.10;;;;;;;1.86;65.04;100311.50;5125403;28;20125;-72
2022/03/31 07:23:18;;;;;;;3.60;2.53;;;;;;;1.86;64.95;100307.97;5097484;28;20031;-71
2022/03/31 07:25:44;;;;;;;4.50;2.07;;;;;;;2.31;64.09;100311.81;5125424;28;20043;-72
2022/03/31 07:28:09;;;;;;;4.82;2.55;;;;;;;2.84;63.18;100318.97;5118686;28;20297;-72
2022/03/31 07:30:35;;;;;;;4.57;2.20;;;;;;;3.79;61.63;100314.84;5127205;28;20060;-71
2022/03/31 07:33:03;;;;;;;6.68;1.83;;;;;;;4.56;57.80;100314.19;5105947;28;20042;-72
2022/03/31 07:35:32;;;;;;;5.95;4.72;;;;;;;4.77;57.36;100316.13;5119211;28;20065;-72
2022/03/31 07:37:59;;;;;;;3.80;2.00;;;;;;;4.82;55.28;100319.72;5112824;28;20493;-72
2022/03/31 07:40:26;;;;;;;2.55;1.60;;;;;;;4.30;55.86;100321.13;5116858;28;20100;-72
2022/03/31 07:42:53;;;;;;;4.25;1.73;;;;;;;4.02;56.58;100319.31;5127499;28;20038;-71
2022/03/31 07:45:19;;;;;;;2.22;1.60;;;;;;;3.56;56.47;100327.47;5115284;28;20062;-72
2022/03/31 07:47:45;;;;;;;3.50;2.10;;;;;;;3.06;57.69;100334.56;5128738;28;20088;-72
2022/03/31 07:50:13;;;;;;;4.07;1.88;;;;;;;2.51;57.94;100341.25;5118837;28;20040;-72
2022/03/31 07:52:39;;;;;;;4.95;2.10;;;;;;;2.82;59.24;100339.22;5122823;28;20035;-71
2022/03/31 07:55:07;;;;;;;3.72;1.70;;;;;;;3.44;57.49;100342.94;5101525;28;20519;-72
2022/03/31 07:57:33;;;;;;;4.47;2.20;;;;;;;3.21;57.59;100343.84;5123686;28;20569;-72
2022/03/31 08:00:00;;;;;;;4.68;2.03;;;;;;;4.47;56.19;100344.47;5108687;28;20114;-72
2022/03/31 08:02:26;;;;;;;6.38;2.33;;;;;;;5.64;53.38;100348.75;5113047;28;20122;-73
2022/03/31 08:04:52;;;;;;;6.00;2.58;;;;;;;6.47;51.89;100349.28;5113922;28;20038;-72
2022/03/31 08:07:18;;;;;;;6.50;1.67;;;;;;;6.60;49.88;100348.03;5127059;27;20495;-72
2022/03/31 08:09:44;;;;;;;5.95;2.38;;;;;;;6.35;49.29;100354.09;5095100;28;20051;-72
2022/03/31 08:12:10;;;;;;;4.82;2.28;;;;;;;6.41;49.71;100354.94;5094884;28;20032;-72
2022/03/31 08:14:36;;;;;;;6.28;2.65;;;;;;;6.77;48.02;100354.13;5126703;27;20042;-72
2022/03/31 08:17:02;;;;;;;5.22;1.77;;;;;;;6.50;47.75;100362.38;5117788;27;20035;-71
2022/03/31 08:19:32;;;;;;;4.25;1.77;;;;;;;5.62;48.93;100367.25;5124282;27;20174;-72
2022/03/31 08:22:01;;;;;;;3.38;1.52;;;;;;;4.83;49.83;100369.47;5115254;27;20036;-72
2022/03/31 08:24:27;;;;;;;4.70;1.95;;;;;;;4.42;50.88;100368.03;5118998;27;20110;-72
2022/03/31 08:26:53;;;;;;;3.10;1.52;;;;;;;3.73;52.49;100365.50;5111411;27;20044;-72
2022/03/31 08:29:19;;;;;;;1.85;1.23;;;;;;;3.33;53.08;100365.53;5129217;27;20038;-73
2022/03/31 08:31:45;;;;;;;2.30;1.40;;;;;;;2.93;54.13;100376.31;5104848;27;20045;-72
2022/03/31 08:34:10;;;;;;;2.20;1.63;;;;;;;2.76;54.80;100384.31;5119877;27;20036;-72
2022/03/31 08:36:36;;;;;;;3.20;1.38;;;;;;;2.58;55.35;100384.44;5130301;27;20066;-72
2022/03/31 08:39:04;;;;;;;4.57;1.70;;;;;;;2.36;56.22;100384.19;5117276;27;20047;-71
2022/03/31 08:41:30;;;;;;;2.80;1.30;;;;;;;2.14;56.29;100391.22;5124786;27;20036;-71
2022/03/31 08:43:56;;;;;;;3.67;1.60;;;;;;;1.95;56.66;100388.59;5102847;27;20027;-71
2022/03/31 08:46:23;;;;;;;2.60;1.63;;;;;;;2.27;56.94;100385.63;5121858;27;20092;-71
2022/03/31 08:48:49;;;;;;;2.60;1.20;;;;;;;3.10;55.59;100387.25;5115681;27;20048;-71
2022/03/31 08:51:15;;;;;;;2.50;1.70;;;;;;;4.03;53.51;100391.56;5129314;27;20111;-71
2022/03/31 08:53:41;;;;;;;3.65;1.42;;;;;;;4.22;51.94;100396.50;5121987;27;20557;-71
2022/03/31 08:56:10;;;;;;;1.88;1.27;;;;;;;4.06;52.26;100399.22;5121310;27;20036;-72
2022/03/31 08:58:35;;;;;;;3.97;1.15;;;;;;;3.71;52.20;100397.47;5106465;27;20085;-71
2022/03/31 09:01:01;;;;;;;2.15;1.30;;;;;;;3.29;52.67;100400.41;5118541;27;20070;-71
2022/03/31 09:03:34;;;;;;;2.72;1.50;;;;;;;3.10;52.97;100414.34;5096155;27;20395;-71
2022/03/31 09:05:59;;;;;;;2.35;1.42;;;;;;;2.84;52.92;100407.56;5107226;27;20112;-71
2022/03/31 09:08:25;;;;;;;2.65;1.73;;;;;;;2.55;53.96;100415.53;5126536;27;20043;-71
2022/03/31 09:10:54;;;;;;;3.35;1.50;;;;;;;2.37;55.11;100408.34;5084195;27;20046;-71
2022/03/31 09:13:20;;;;;;;3.58;1.60;;;;;;;2.08;55.13;100418.16;5117974;27;20497;-71
2022/03/31 09:15:52;;;;;;;1.75;1.25;;;;;;;1.97;55.13;100415.41;5117565;27;20039;-71
2022/03/31 09:18:20;;;;;;;2.05;1.20;;;;;;;1.90;55.67;100420.06;5126740;27;20046;-72
2022/03/31 09:20:47;;;;;;;2.85;1.30;;;;;;;1.98;55.87;100417.88;5116189;27;20046;-71
2022/03/31 09:23:21;;;;;;;2.72;1.30;;;;;;;2.16;55.34;100408.06;5128930;27;20059;-71
2022/03/31 09:25:48;;;;;;;2.70;1.30;;;;;;;2.18;54.67;100417.59;5112208;27;20466;-71
2022/03/31 09:28:15;;;;;;;3.28;1.13;;;;;;;2.14;54.98;100415.59;5125734;27;20404;-71
2022/03/31 09:30:46;;;;;;;1.80;1.05;;;;;;;2.27;54.57;100416.22;5096924;27;20028;-71
2022/03/31 09:33:12;;;;;;;2.50;1.17;;;;;;;2.50;53.74;100420.00;5126675;27;20117;-71
2022/03/31 09:35:37;;;;;;;3.78;1.40;;;;;;;2.57;53.96;100418.84;5125591;27;20110;-71
2022/03/31 09:38:13;;;;;;;5.45;1.35;;;;;;;2.71;53.75;100422.97;5123976;27;20130;-72
2022/03/31 09:40:39;;;;;;;6.43;3.60;;;;;;;2.77;54.08;100425.78;5116324;27;20417;-72
2022/03/31 09:43:04;;;;;;;3.55;1.65;;;;;;;2.91;53.69;100425.31;5129351;27;20480;-71
2022/03/31 09:45:40;;;;;;;1.10;1.00;;;;;;;3.06;52.41;100424.84;5118613;27;20084;-71
2022/03/31 09:48:17;;;;;;;3.65;1.23;;;;;;;3.16;51.87;100435.94;5128753;27;20069;-73
2022/03/31 09:50:43;;;;;;;2.65;1.33;;;;;;;3.20;51.90;100420.00;5104398;27;20040;-72
2022/03/31 09:53:09;;;;;;;2.10;1.50;;;;;;;3.12;51.35;100429.31;5132871;27;20031;-72
2022/03/31 09:55:35;;;;;;;2.17;1.23;;;;;;;3.08;51.40;100432.75;5107150;28;20043;-72
2022/03/31 09:58:01;;;;;;;3.47;1.33;;;;;;;3.07;51.15;100434.63;5091668;28;20139;-71
2022/03/31 10:00:27;;;;;;;2.28;1.40;;;;;;;2.98;50.84;100436.06;5099006;28;20035;-71
2022/03/31 10:02:54;;;;;;;1.20;0.90;;;;;;;2.88;50.83;100430.41;5128862;27;20039;-72
2022/03/31 10:05:20;;;;;;;2.97;1.30;;;;;;;2.85;50.43;100439.00;5112074;28;20036;-71
2022/03/31 10:07:46;;;;;;;1.88;1.40;;;;;;;2.70;50.43;100440.28;5110801;27;20046;-72
2022/03/31 10:10:13;;;;;;;3.00;1.10;;;;;;;2.59;51.19;100438.38;5124434;27;20122;-71
2022/03/31 10:12:53;;;;;;;1.40;1.00;;;;;;;2.51;51.11;100443.34;5115670;27;20430;-71
2022/03/31 10:15:29;;;;;;;2.42;1.00;;;;;;;2.35;51.81;100444.81;5084233;27;20035;-72
2022/03/31 10:17:55;;;;;;;1.88;0.93;;;;;;;2.29;51.90;100452.00;5103626;28;20467;-71
2022/03/31 10:20:21;;;;;;;2.03;1.27;;;;;;;2.24;52.26;100456.44;5125883;27;20031;-71
2022/03/31 10:25:45;;;;;;;1.48;1.27;;;;;;;2.21;51.89;100454.19;5114435;27;20047;-71
2022/03/31 10:28:21;;;;;;;2.28;1.42;;;;;;;2.11;51.81;100447.47;5117859;27;20549;-71
2022/03/31 10:31:04;;;;;;;2.90;1.38;;;;;;;2.05;52.63;100456.50;5108194;27;20040;-71
2022/03/31 10:33:42;;;;;;;4.45;1.67;;;;;;;2.07;52.21;100448.97;5112741;27;20035;-72
2022/03/31 10:36:14;;;;;;;3.67;1.55;;;;;;;2.15;52.03;100455.97;5118499;27;20023;-71
2022/03/31 10:38:54;;;;;;;3.22;1.35;;;;;;;2.07;51.53;100457.09;5110069;27;20131;-71
2022/03/31 10:41:31;;;;;;;1.88;1.00;;;;;;;2.05;51.25;100461.91;5093447;27;20035;-71
2022/03/31 10:43:59;;;;;;;0.95;0.88;;;;;;;1.94;51.90;100457.28;5126170;27;20035;-71
2022/03/31 10:46:28;;;;;;;1.88;1.00;;;;;;;1.84;51.95;100467.81;5111256;27;20082;-71
2022/03/31 10:49:00;;;;;;;1.33;0.93;;;;;;;1.75;52.41;100459.22;5126653;27;20119;-71
2022/03/31 10:51:36;;;;;;;4.00;1.50;;;;;;;1.75;52.40;100464.63;5122655;27;20043;-71
2022/03/31 10:54:04;;;;;;;1.48;0.90;;;;;;;1.83;52.56;100462.66;5122782;27;20041;-71
2022/03/31 10:56:31;;;;;;;1.92;1.10;;;;;;;1.91;51.61;100462.31;5114262;27;20093;-70
2022/03/31 10:59:02;;;;;;;1.27;1.17;;;;;;;1.83;52.41;100468.88;5106971;27;20048;-71
2022/03/31 11:01:32;;;;;;;3.00;1.20;;;;;;;1.67;52.46;100464.91;5122351;27;20047;-72
2022/03/31 11:04:05;;;;;;;1.50;1.25;;;;;;;1.62;52.18;100467.47;5076330;28;20043;-71
2022/03/31 11:06:31;;;;;;;10.82;1.50;;;;;;;1.70;52.00;100469.03;5092753;28;20501;-71
2022/03/31 11:08:56;;;;;;;2.25;1.67;;;;;;;1.76;51.59;100471.69;5093552;28;20042;-73
2022/03/31 11:11:28;;;;;;;2.95;0.90;;;;;;;1.80;51.06;100474.75;5107678;28;20081;-72
2022/03/31 11:13:55;;;;;;;3.33;1.08;;;;;;;1.78;51.57;100472.28;5119276;27;20042;-71
2022/03/31 11:16:22;;;;;;;3.65;1.00;;;;;;;1.81;50.86;100479.94;5124563;27;20095;-72
2022/03/31 11:18:54;;;;;;;5.40;1.25;;;;;;;1.90;51.23;100485.84;5112798;28;20126;-71
2022/03/31 11:21:20;;;;;;;2.00;1.05;;;;;;;1.90;51.07;100480.44;5101595;28;20031;-72
2022/03/31 11:23:47;;;;;;;4.43;1.65;;;;;;;1.96;50.45;100479.53;5122095;28;20053;-71
2022/03/31 11:26:34;;;;;;;1.38;1.10;;;;;;;2.08;49.91;100485.84;5123983;28;20057;-73
2022/03/31 11:29:01;;;;;;;3.22;1.10;;;;;;;2.15;50.04;100479.50;5111957;28;20036;-72
2022/03/31 11:31:26;;;;;;;2.67;1.00;;;;;;;2.26;49.29;100484.97;5120579;28;20508;-76
2022/03/31 11:33:53;;;;;;;3.38;1.02;;;;;;;2.30;49.49;100480.72;5098378;28;20036;-71